Terminal Aerodrome Forecast
Issued by NWS

Home | Current Version | Previous Version | Text Only | Print | Product List | Glossary On
Versions: 1 2 3 4 5 6 7 8 9 10 11 12 13 14 15 16 17 18 19
679
FTUS43 KMQT 051120
TAFCMX
TAF
KCMX 051120Z 0512/0612 26011G18KT 6SM -SN OVC015
     FM051500 26013G22KT P6SM OVC020
     FM051900 25009KT P6SM BKN035
     FM052100 22005KT P6SM BKN070
     FM060000 13007KT P6SM OVC070
     FM060200 13007KT 5SM -SN OVC045
     FM060300 13008KT 4SM -SN OVC025
     FM060600 16009KT P6SM OVC030
     FM061100 18009KT P6SM OVC015=

USA.gov is the U.S. government's official web portal to all federal, state and local government web resources and services.